Time;durP1;ratioP1;P1;durP2;ratioP2;P2;SDS_P1;SDS_P2;PMS_P1;PMS_P2;Temp;Humidity;BMP_temperature;BMP_pressure;BME280_temperature;BME280_humidity;BME280_pressure;Samples;Min_cycle;Max_cycle;Signal;HPM_P1;HPM_P2
2024/01/08 00:00:50;;;;;;;2.28;1.50;;;;;;;18.38;25.20;102835.78;16117720;19;130913;-65
2024/01/08 00:06:12;;;;;;;4.05;1.88;;;;;;;18.31;25.34;102830.16;16117862;19;129706;-66
2024/01/08 00:11:34;;;;;;;2.65;1.70;;;;;;;18.24;25.24;102826.44;16117836;19;129447;-66
2024/01/08 00:16:56;;;;;;;2.35;1.30;;;;;;;18.17;25.32;102825.53;16115997;19;130837;-65
2024/01/08 00:22:18;;;;;;;2.40;1.30;;;;;;;18.11;24.90;102814.19;16112520;19;130558;-66
2024/01/08 00:27:41;;;;;;;1.77;1.48;;;;;;;18.07;24.90;102825.84;16113561;19;130565;-66
2024/01/08 00:33:03;;;;;;;1.70;1.10;;;;;;;18.01;25.32;102819.19;16115726;19;129546;-66
2024/01/08 00:38:26;;;;;;;2.03;1.40;;;;;;;17.96;25.02;102824.47;16114430;19;130976;-63
2024/01/08 00:43:49;;;;;;;2.08;1.20;;;;;;;17.92;25.37;102818.44;16112486;19;130722;-65
2024/01/08 00:49:11;;;;;;;3.00;1.25;;;;;;;17.87;25.18;102833.91;16109376;19;130789;-66
2024/01/08 00:54:33;;;;;;;1.98;1.17;;;;;;;17.83;25.06;102841.75;16114379;19;131240;-65
2024/01/08 00:59:55;;;;;;;3.50;1.30;;;;;;;17.77;24.89;102851.72;16117488;19;130827;-66
2024/01/08 01:05:16;;;;;;;2.63;1.27;;;;;;;17.73;24.62;102843.97;16108766;19;129733;-64
2024/01/08 01:10:38;;;;;;;1.63;1.10;;;;;;;17.71;24.73;102855.25;16113405;19;130325;-65
2024/01/08 01:16:00;;;;;;;2.13;1.30;;;;;;;17.65;24.72;102847.72;16111644;19;130157;-65
2024/01/08 01:21:22;;;;;;;3.28;1.40;;;;;;;17.62;24.47;102851.72;16110488;19;131759;-65
2024/01/08 01:26:44;;;;;;;2.03;1.20;;;;;;;17.57;24.48;102851.44;16115368;19;129403;-65
2024/01/08 01:32:07;;;;;;;1.90;1.40;;;;;;;17.54;24.79;102858.22;16114087;19;129577;-69
2024/01/08 01:37:29;;;;;;;3.17;1.20;;;;;;;17.51;24.67;102861.34;16112241;19;130441;-66
2024/01/08 01:42:54;;;;;;;2.65;1.30;;;;;;;17.50;24.41;102850.47;16110138;19;129849;-64
2024/01/08 01:48:17;;;;;;;3.10;1.30;;;;;;;17.44;24.25;102857.63;16110637;19;130421;-66
2024/01/08 01:53:39;;;;;;;1.63;0.90;;;;;;;17.42;24.44;102854.19;16111419;19;130821;-65
2024/01/08 01:59:03;;;;;;;1.88;1.20;;;;;;;17.40;24.62;102847.97;16105968;19;131939;-65
2024/01/08 02:04:28;;;;;;;2.65;1.40;;;;;;;17.36;24.46;102849.41;16107442;19;129987;-66
2024/01/08 02:09:50;;;;;;;1.50;1.17;;;;;;;17.34;24.80;102851.53;16111045;19;133444;-67
2024/01/08 02:15:12;;;;;;;1.83;1.10;;;;;;;17.31;24.68;102841.69;16109310;19;130392;-65
2024/01/08 02:20:34;;;;;;;4.63;1.85;;;;;;;17.29;24.31;102848.47;16106636;19;130100;-65
2024/01/08 02:25:57;;;;;;;2.90;1.40;;;;;;;17.26;24.31;102848.84;16107789;19;130979;-65
2024/01/08 02:31:20;;;;;;;2.53;1.67;;;;;;;17.24;24.36;102849.03;16107687;19;129351;-65
2024/01/08 02:36:42;;;;;;;2.40;1.88;;;;;;;17.21;24.76;102842.00;16103544;19;129579;-65
2024/01/08 02:42:04;;;;;;;4.07;1.83;;;;;;;17.19;24.47;102844.06;16106825;19;130575;-64
2024/01/08 02:47:26;;;;;;;3.15;2.10;;;;;;;17.18;24.81;102847.00;16107623;19;130558;-65
2024/01/08 02:52:48;;;;;;;5.00;2.40;;;;;;;17.15;24.58;102848.25;16104914;19;129464;-64
2024/01/08 02:58:10;;;;;;;4.05;2.25;;;;;;;17.13;24.74;102850.34;16100355;19;131025;-65
2024/01/08 03:03:32;;;;;;;3.33;2.20;;;;;;;17.12;24.58;102856.09;16108446;19;129913;-65
2024/01/08 03:08:54;;;;;;;3.88;2.28;;;;;;;17.09;24.74;102860.09;16111109;19;131298;-65
2024/01/08 03:14:16;;;;;;;3.35;1.98;;;;;;;17.06;24.53;102860.47;16118423;19;131107;-65
2024/01/08 03:19:38;;;;;;;2.83;1.80;;;;;;;17.05;24.15;102869.81;16120351;19;132193;-64
2024/01/08 03:25:00;;;;;;;2.20;2.00;;;;;;;17.03;23.81;102872.78;16119369;19;130797;-64
2024/01/08 03:30:22;;;;;;;2.67;1.90;;;;;;;17.00;24.11;102883.31;16118659;19;129691;-64
2024/01/08 03:35:44;;;;;;;3.40;2.00;;;;;;;16.97;24.08;102878.19;16120451;19;131494;-64
2024/01/08 03:41:06;;;;;;;3.70;1.77;;;;;;;16.93;24.37;102889.63;16118058;19;131157;-64
2024/01/08 03:46:28;;;;;;;2.40;1.85;;;;;;;16.90;23.89;102878.91;16119948;19;132266;-64
2024/01/08 03:51:50;;;;;;;2.17;1.92;;;;;;;16.87;24.25;102889.50;16120020;19;129654;-65
2024/01/08 03:57:12;;;;;;;2.95;1.65;;;;;;;16.84;24.09;102890.75;16118599;19;129616;-63
2024/01/08 04:02:34;;;;;;;2.60;1.63;;;;;;;16.83;24.13;102890.91;16118575;19;131002;-63
2024/01/08 04:07:56;;;;;;;2.63;1.95;;;;;;;16.81;24.12;102893.88;16116022;19;130837;-63
2024/01/08 04:13:19;;;;;;;3.05;1.42;;;;;;;16.81;24.10;102893.00;16117723;19;130246;-63
2024/01/08 04:18:41;;;;;;;2.30;1.73;;;;;;;16.80;23.82;102903.19;16117886;19;129519;-64
2024/01/08 04:24:03;;;;;;;2.63;1.90;;;;;;;16.77;24.08;102904.44;16112648;19;129777;-64
2024/01/08 04:29:25;;;;;;;1.80;1.42;;;;;;;16.76;23.96;102911.00;16114663;19;129638;-64
2024/01/08 04:34:47;;;;;;;1.85;1.33;;;;;;;16.74;24.02;102913.09;16120306;19;129673;-64
2024/01/08 04:40:10;;;;;;;2.20;1.63;;;;;;;16.74;24.08;102923.28;16116581;19;130153;-64
2024/01/08 04:45:32;;;;;;;1.40;1.30;;;;;;;16.73;24.43;102910.53;16114473;19;130675;-64
2024/01/08 04:50:54;;;;;;;1.77;1.33;;;;;;;16.72;24.38;102908.81;16117016;19;129848;-63
2024/01/08 04:56:24;;;;;;;1.50;1.20;;;;;;;16.72;24.35;102914.34;16115239;19;130389;-63
2024/01/08 05:01:46;;;;;;;1.70;1.10;;;;;;;16.69;24.43;102898.13;16109936;19;131306;-63
2024/01/08 05:07:08;;;;;;;1.80;1.40;;;;;;;16.68;24.32;102904.69;16114236;19;129944;-64
2024/01/08 05:12:30;;;;;;;1.65;1.20;;;;;;;16.65;24.25;102892.06;16112048;19;130083;-63
2024/01/08 05:17:52;;;;;;;2.55;1.40;;;;;;;16.62;23.99;102890.50;16114281;19;130907;-64
2024/01/08 05:23:14;;;;;;;1.75;1.38;;;;;;;16.61;24.05;102886.06;16115894;19;129678;-65
2024/01/08 05:28:36;;;;;;;2.63;1.15;;;;;;;16.59;24.36;102890.91;16114036;19;131326;-65
2024/01/08 05:33:58;;;;;;;2.58;1.50;;;;;;;16.57;24.34;102886.59;16106638;19;130723;-65
2024/01/08 05:39:21;;;;;;;2.17;1.45;;;;;;;16.57;23.93;102887.47;16111329;19;129696;-64
2024/01/08 05:44:43;;;;;;;1.30;1.20;;;;;;;16.61;24.16;102890.72;16111514;19;129580;-64
2024/01/08 05:50:05;;;;;;;1.83;1.20;;;;;;;16.68;24.60;102883.41;16109394;19;131210;-66
2024/01/08 05:55:27;;;;;;;2.25;1.35;;;;;;;16.77;24.47;102878.69;16109715;19;131642;-66
2024/01/08 06:00:49;;;;;;;1.20;1.00;;;;;;;16.85;24.66;102881.41;16105735;19;129568;-66
2024/01/08 06:06:12;;;;;;;1.30;1.20;;;;;;;16.91;24.37;102875.13;16109100;19;131121;-64
2024/01/08 06:11:34;;;;;;;1.48;1.20;;;;;;;16.98;24.29;102879.91;16107578;19;130965;-64
2024/01/08 06:16:56;;;;;;;1.80;1.40;;;;;;;17.00;24.63;102883.31;16108641;19;129856;-64
2024/01/08 06:22:18;;;;;;;1.55;1.00;;;;;;;17.01;24.41;102880.38;16108469;19;129729;-63
2024/01/08 06:27:40;;;;;;;1.70;1.00;;;;;;;17.02;24.42;102882.13;16104820;19;129719;-65
2024/01/08 06:33:02;;;;;;;4.88;1.27;;;;;;;17.02;24.36;102886.75;16102590;19;131113;-63
2024/01/08 06:38:24;;;;;;;3.88;1.30;;;;;;;17.03;23.97;102888.47;16104456;19;130492;-64
2024/01/08 06:43:46;;;;;;;1.48;1.23;;;;;;;17.00;23.99;102889.72;16100953;19;129881;-63
2024/01/08 06:49:08;;;;;;;6.47;1.08;;;;;;;16.97;23.97;102892.84;16107826;19;131724;-64
2024/01/08 06:54:30;;;;;;;2.83;1.20;;;;;;;16.91;24.39;102883.41;16103975;19;132677;-67
2024/01/08 06:59:52;;;;;;;3.08;1.42;;;;;;;16.87;24.14;102879.28;16104322;19;130239;-63
2024/01/08 07:05:16;;;;;;;1.60;1.23;;;;;;;16.84;24.06;102874.16;16103061;19;131705;-64
2024/01/08 07:10:38;;;;;;;2.78;1.30;;;;;;;16.81;24.25;102885.56;16106884;19;129995;-63
2024/01/08 07:16:00;;;;;;;1.85;1.20;;;;;;;16.79;24.26;102884.91;16094970;19;131470;-63
2024/01/08 07:21:22;;;;;;;2.53;1.10;;;;;;;16.74;24.30;102885.47;16095529;19;130222;-63
2024/01/08 07:26:44;;;;;;;3.15;1.30;;;;;;;16.71;24.22;102896.03;16093829;19;130512;-64
2024/01/08 07:32:06;;;;;;;2.15;1.48;;;;;;;16.69;23.97;102895.34;16093604;19;130900;-65
2024/01/08 07:37:28;;;;;;;2.33;1.45;;;;;;;16.66;24.22;102898.44;16096642;19;129541;-64
2024/01/08 07:42:54;;;;;;;2.45;1.20;;;;;;;16.64;24.45;102901.41;16102897;19;132182;-63
2024/01/08 07:48:16;;;;;;;2.17;1.50;;;;;;;16.61;24.31;102908.16;16103307;19;129525;-62
2024/01/08 07:53:39;;;;;;;2.08;1.40;;;;;;;16.59;24.53;102920.44;16103433;19;129970;-63
2024/01/08 07:59:02;;;;;;;2.20;1.40;;;;;;;16.55;24.33;102925.47;16113829;19;131022;-62
2024/01/08 08:04:24;;;;;;;2.65;1.70;;;;;;;16.53;24.42;102937.75;16119753;19;129466;-62
2024/01/08 08:09:47;;;;;;;2.00;1.60;;;;;;;16.48;24.60;102927.25;16115444;19;131794;-62
2024/01/08 08:15:10;;;;;;;1.75;1.50;;;;;;;16.48;24.17;102924.50;16119702;19;130047;-62
2024/01/08 08:20:32;;;;;;;2.70;1.58;;;;;;;16.45;24.82;102933.13;16116198;19;131006;-62
2024/01/08 08:25:54;;;;;;;3.30;1.60;;;;;;;16.42;24.81;102931.63;16115854;19;131285;-62
2024/01/08 08:31:16;;;;;;;2.30;1.67;;;;;;;16.40;24.68;102936.47;16116441;19;129782;-62
2024/01/08 08:36:39;;;;;;;2.42;1.70;;;;;;;16.37;24.22;102938.72;16116772;19;130279;-62
2024/01/08 08:42:01;;;;;;;3.17;1.70;;;;;;;16.34;24.41;102939.94;16118217;19;130130;-62
2024/01/08 08:47:23;;;;;;;3.10;1.48;;;;;;;16.31;24.50;102935.63;16116755;19;129535;-63
2024/01/08 08:52:45;;;;;;;2.97;1.42;;;;;;;16.28;24.53;102941.50;16117996;19;129495;-62
2024/01/08 08:58:09;;;;;;;2.67;1.95;;;;;;;16.26;24.37;102946.34;16114524;19;129297;-62
2024/01/08 09:03:31;;;;;;;4.63;1.90;;;;;;;16.26;24.77;102948.28;16119139;19;130709;-62
2024/01/08 09:08:54;;;;;;;3.20;1.83;;;;;;;16.24;24.44;102953.97;16116950;19;129259;-62
2024/01/08 09:14:16;;;;;;;2.22;1.60;;;;;;;16.22;24.70;102952.44;16116994;19;133222;-62
2024/01/08 09:19:38;;;;;;;3.88;1.65;;;;;;;16.20;24.66;102955.38;16116817;19;131114;-62
2024/01/08 09:25:00;;;;;;;3.80;1.83;;;;;;;16.20;24.55;102955.38;16116931;19;130873;-62
2024/01/08 09:30:23;;;;;;;2.05;1.50;;;;;;;16.17;24.92;102952.97;16116484;19;129524;-61
2024/01/08 09:35:45;;;;;;;3.60;1.80;;;;;;;16.16;24.69;102954.88;16111370;19;131178;-62
2024/01/08 09:41:10;;;;;;;2.28;1.70;;;;;;;16.15;24.78;102957.81;16113264;19;131318;-62
2024/01/08 09:46:47;;;;;;;2.67;1.67;;;;;;;16.12;24.96;102964.56;16112518;19;131306;-62
2024/01/08 09:52:16;;;;;;;1.50;1.30;;;;;;;16.18;24.98;102968.50;16110555;19;129323;-63
2024/01/08 09:57:38;;;;;;;2.30;1.30;;;;;;;16.28;25.50;102968.28;16112290;19;130970;-64
2024/01/08 10:03:00;;;;;;;2.58;1.58;;;;;;;16.41;25.16;102970.44;16108780;19;130046;-63
2024/01/08 10:08:23;;;;;;;2.38;1.50;;;;;;;16.53;25.10;102957.09;16114219;19;129374;-63
2024/01/08 10:13:44;;;;;;;2.05;1.42;;;;;;;16.63;25.11;102955.81;16109119;19;131981;-64
2024/01/08 10:19:07;;;;;;;1.88;1.50;;;;;;;16.68;25.02;102958.03;16109403;19;129633;-64
2024/01/08 10:24:29;;;;;;;2.08;1.38;;;;;;;16.70;25.08;102961.50;16110808;19;131182;-63
2024/01/08 10:29:51;;;;;;;1.88;1.40;;;;;;;16.71;24.88;102951.31;16111381;19;131435;-63
2024/01/08 10:35:16;;;;;;;2.13;1.45;;;;;;;16.70;25.14;102950.44;16110427;19;130124;-63
2024/01/08 10:40:38;;;;;;;2.13;1.67;;;;;;;16.72;25.23;102941.97;16111726;19;130283;-63
2024/01/08 10:46:03;;;;;;;1.92;1.52;;;;;;;16.71;25.14;102946.63;16108778;19;130345;-63
2024/01/08 10:51:26;;;;;;;1.98;1.52;;;;;;;16.66;24.75;102931.59;16110001;19;130889;-63
2024/01/08 10:56:54;;;;;;;2.13;1.40;;;;;;;16.60;25.26;102934.09;16108954;19;129467;-62
2024/01/08 11:02:17;;;;;;;2.00;1.70;;;;;;;16.55;24.98;102925.47;16109339;19;130801;-63
2024/01/08 11:07:41;;;;;;;2.88;1.60;;;;;;;16.52;24.74;102917.53;16109603;19;130068;-62
2024/01/08 11:13:04;;;;;;;3.25;1.50;;;;;;;16.47;24.84;102917.25;16104167;19;129636;-62
2024/01/08 11:18:26;;;;;;;2.20;1.90;;;;;;;16.43;24.88;102915.88;16108506;19;131134;-63
2024/01/08 11:23:53;;;;;;;2.45;1.67;;;;;;;16.40;24.48;102910.72;16109939;19;130617;-62
2024/01/08 11:29:16;;;;;;;2.33;1.70;;;;;;;16.37;24.89;102911.94;16108188;19;130612;-63
2024/01/08 11:34:55;;;;;;;1.80;1.30;;;;;;;16.35;24.51;102913.19;16118681;19;129562;-63
2024/01/08 11:40:19;;;;;;;4.43;1.65;;;;;;;16.29;24.58;102912.84;16120925;19;129745;-63
2024/01/08 11:45:41;;;;;;;3.30;1.48;;;;;;;16.25;24.47;102900.44;16121665;19;130153;-63
2024/01/08 11:51:04;;;;;;;1.73;1.45;;;;;;;16.24;24.70;102897.88;16121171;19;130067;-63
2024/01/08 11:56:26;;;;;;;1.73;1.60;;;;;;;16.20;24.37;102890.97;16121328;19;130804;-63
2024/01/08 12:01:48;;;;;;;2.38;1.60;;;;;;;16.17;24.38;102900.50;16119432;19;129573;-63
2024/01/08 12:07:12;;;;;;;2.17;1.67;;;;;;;16.15;24.51;102886.00;16118880;19;130060;-63
2024/01/08 12:12:35;;;;;;;1.65;1.55;;;;;;;16.11;24.43;102887.44;16120336;19;131859;-63
2024/01/08 12:17:58;;;;;;;2.33;1.50;;;;;;;16.08;24.25;102880.34;16115718;19;129708;-63
2024/01/08 12:23:20;;;;;;;1.88;1.40;;;;;;;16.06;24.11;102887.09;16122103;19;129559;-62
2024/01/08 12:28:44;;;;;;;1.77;1.50;;;;;;;16.03;24.22;102873.66;16119075;19;129517;-62
2024/01/08 12:34:07;;;;;;;2.42;1.48;;;;;;;15.99;24.23;102864.88;16116505;19;130371;-63
2024/01/08 12:39:30;;;;;;;2.33;1.35;;;;;;;15.99;24.33;102874.03;16111381;19;130838;-65
2024/01/08 12:44:53;;;;;;;2.30;1.40;;;;;;;16.01;24.67;102866.41;16114208;19;130133;-63
2024/01/08 12:50:15;;;;;;;2.38;1.38;;;;;;;16.10;24.68;102847.06;16112391;19;129930;-63
2024/01/08 12:55:37;;;;;;;1.77;1.27;;;;;;;16.23;24.43;102866.66;16110330;19;129804;-63
2024/01/08 13:01:00;;;;;;;1.55;1.33;;;;;;;16.35;24.23;102858.78;16110407;19;130203;-63
2024/01/08 13:06:25;;;;;;;1.90;1.52;;;;;;;16.43;23.97;102855.09;16110912;19;131614;-62
2024/01/08 13:11:47;;;;;;;1.85;1.52;;;;;;;16.48;24.15;102849.91;16111395;19;130179;-62
2024/01/08 13:17:09;;;;;;;2.85;1.55;;;;;;;16.51;23.93;102851.44;16109259;19;130018;-62
2024/01/08 13:22:34;;;;;;;2.03;1.40;;;;;;;16.50;24.16;102838.66;16112857;19;130848;-62
2024/01/08 13:27:56;;;;;;;1.95;1.50;;;;;;;16.49;24.27;102834.16;16108940;19;134178;-62
2024/01/08 13:33:18;;;;;;;2.00;1.38;;;;;;;16.48;23.88;102830.56;16107205;19;129311;-62
2024/01/08 13:38:41;;;;;;;1.95;1.40;;;;;;;16.48;23.85;102836.09;15959067;19;2965619;-63
2024/01/08 13:44:03;;;;;;;1.80;1.40;;;;;;;16.43;24.00;102827.47;16112236;19;129516;-63
2024/01/08 13:49:26;;;;;;;1.67;1.30;;;;;;;16.36;23.78;102827.34;16115180;19;130400;-62
2024/01/08 13:54:48;;;;;;;2.38;1.35;;;;;;;16.34;23.54;102825.84;16110042;19;129460;-62
2024/01/08 14:00:10;;;;;;;2.22;1.50;;;;;;;16.32;23.22;102834.28;16113025;19;130600;-62
2024/01/08 14:05:34;;;;;;;3.13;1.38;;;;;;;16.28;23.58;102831.03;16111928;19;130011;-62
2024/01/08 14:10:57;;;;;;;2.08;1.33;;;;;;;16.24;23.60;102831.59;16112033;19;129480;-63
2024/01/08 14:16:19;;;;;;;2.38;1.40;;;;;;;16.21;23.36;102846.63;16114577;19;130062;-63
2024/01/08 14:21:41;;;;;;;2.58;1.73;;;;;;;16.19;23.23;102837.66;16111389;19;129398;-63
2024/01/08 14:27:03;;;;;;;2.20;1.42;;;;;;;16.21;23.72;102852.16;16109768;19;131703;-62
2024/01/08 14:32:25;;;;;;;2.42;1.40;;;;;;;16.25;23.83;102841.59;16111948;19;130442;-63
2024/01/08 14:37:47;;;;;;;1.55;1.20;;;;;;;16.30;23.69;102856.56;16110085;19;130669;-63
2024/01/08 14:43:09;;;;;;;1.73;1.25;;;;;;;16.37;23.46;102850.34;16111154;19;130861;-61
2024/01/08 14:48:32;;;;;;;1.55;1.23;;;;;;;16.41;23.15;102857.19;16113943;19;129868;-62
2024/01/08 14:53:54;;;;;;;1.90;1.38;;;;;;;16.42;23.40;102853.38;16108290;19;129950;-62
2024/01/08 14:59:16;;;;;;;1.63;1.23;;;;;;;16.41;23.10;102858.06;16109576;19;129639;-62
2024/01/08 15:04:38;;;;;;;2.47;1.25;;;;;;;16.41;22.87;102859.94;16104941;19;131691;-62
2024/01/08 15:10:01;;;;;;;2.08;1.30;;;;;;;16.40;22.88;102878.44;16103551;19;129622;-62
2024/01/08 15:15:23;;;;;;;1.65;1.42;;;;;;;16.40;22.91;102872.03;16104499;19;129939;-62
2024/01/08 15:20:45;;;;;;;1.85;1.48;;;;;;;16.38;22.98;102880.53;16105908;19;130085;-62
2024/01/08 15:26:07;;;;;;;2.05;1.50;;;;;;;16.37;22.73;102883.47;16105148;19;129543;-62
2024/01/08 15:31:29;;;;;;;2.78;1.42;;;;;;;16.32;22.74;102892.28;16106861;19;131002;-62
2024/01/08 15:36:51;;;;;;;3.53;1.42;;;;;;;16.30;22.74;102889.72;16101683;19;129328;-63
2024/01/08 15:42:13;;;;;;;1.83;1.42;;;;;;;16.24;22.97;102889.59;16104425;19;130081;-63
2024/01/08 15:47:35;;;;;;;2.33;1.40;;;;;;;16.21;22.82;102903.75;16109090;19;130168;-62
2024/01/08 15:52:57;;;;;;;1.95;1.48;;;;;;;16.18;22.78;102901.38;16106727;19;131011;-61
2024/01/08 15:58:19;;;;;;;2.50;1.70;;;;;;;16.20;22.89;102900.16;16104755;19;129765;-62
2024/01/08 16:03:41;;;;;;;1.70;1.23;;;;;;;16.35;22.73;102915.94;16103443;19;130429;-62
2024/01/08 16:09:05;;;;;;;1.60;1.40;;;;;;;16.58;22.74;102905.78;16103415;19;129449;-62
2024/01/08 16:14:27;;;;;;;1.85;1.27;;;;;;;16.92;22.48;102904.47;16093029;19;130107;-62
2024/01/08 16:19:48;;;;;;;2.03;1.27;;;;;;;17.35;21.86;102912.19;16108863;19;129622;-61
2024/01/08 16:25:10;;;;;;;5.50;1.23;;;;;;;17.66;21.65;102926.94;16118346;19;130302;-63
2024/01/08 16:30:33;;;;;;;3.92;1.50;;;;;;;17.94;21.75;102918.78;16122852;19;129673;-62
2024/01/08 16:35:55;;;;;;;2.95;1.92;;;;;;;18.11;21.59;102936.06;16115179;19;131051;-60
2024/01/08 16:41:17;;;;;;;2.70;1.48;;;;;;;18.18;21.33;102935.28;16117715;19;129596;-63
2024/01/08 16:46:39;;;;;;;6.05;1.30;;;;;;;18.20;21.48;102927.66;16115352;19;129429;-64
2024/01/08 16:52:02;;;;;;;2.80;1.45;;;;;;;18.17;21.15;102939.97;16109725;19;130926;-64
2024/01/08 16:57:24;;;;;;;3.67;1.77;;;;;;;18.09;21.14;102948.38;16113887;19;130062;-64
2024/01/08 17:02:46;;;;;;;2.85;1.63;;;;;;;18.03;21.08;102949.19;16113466;19;131413;-64
2024/01/08 17:08:09;;;;;;;2.92;1.60;;;;;;;17.97;20.76;102951.66;16113195;19;130789;-63
2024/01/08 17:13:31;;;;;;;4.82;1.67;;;;;;;18.00;20.86;102947.63;16112235;19;131715;-64
2024/01/08 17:18:53;;;;;;;2.63;1.25;;;;;;;18.04;20.55;102957.28;16113592;19;130959;-64
2024/01/08 17:24:15;;;;;;;1.50;1.30;;;;;;;18.11;20.23;102958.22;16114156;19;129513;-73
2024/01/08 17:29:39;;;;;;;3.95;1.70;;;;;;;18.16;20.47;102963.16;16113715;19;129982;-66
2024/01/08 17:35:02;;;;;;;6.70;2.65;;;;;;;18.22;20.54;102969.84;16110499;19;130226;-65
2024/01/08 17:40:24;;;;;;;6.15;2.20;;;;;;;18.36;20.65;102966.19;16117129;19;130259;-65
2024/01/08 17:45:46;;;;;;;6.28;2.55;;;;;;;18.57;20.54;102967.34;16113947;19;129839;-65
2024/01/08 17:51:08;;;;;;;7.57;2.80;;;;;;;18.84;20.46;102970.38;16115028;19;130565;-67
2024/01/08 17:56:30;;;;;;;7.20;2.80;;;;;;;19.08;20.54;102975.50;16110707;19;130863;-66
2024/01/08 18:01:52;;;;;;;8.60;2.90;;;;;;;19.23;20.73;102982.94;16113251;19;134649;-70
2024/01/08 18:07:14;;;;;;;9.52;3.03;;;;;;;19.27;20.90;102989.81;16117546;19;129720;-64
2024/01/08 18:12:37;;;;;;;14.20;3.38;;;;;;;19.36;20.71;102983.03;16117096;19;133107;-64
2024/01/08 18:18:04;;;;;;;11.00;3.13;;;;;;;19.45;20.21;102991.22;16106757;19;129959;-63
2024/01/08 18:23:27;;;;;;;8.52;2.42;;;;;;;19.47;20.24;103001.06;16108616;19;130698;-61
2024/01/08 18:28:49;;;;;;;5.93;2.72;;;;;;;19.61;20.13;103002.03;16114619;19;130202;-62
2024/01/08 18:34:12;;;;;;;7.75;2.38;;;;;;;19.74;19.88;103005.94;16112031;19;131714;-60
2024/01/08 18:39:34;;;;;;;7.63;2.28;;;;;;;19.82;20.34;103008.56;16109039;19;129736;-58
2024/01/08 18:44:56;;;;;;;5.43;2.20;;;;;;;19.89;20.00;103009.47;16112447;19;129634;-63
2024/01/08 18:50:18;;;;;;;6.60;2.28;;;;;;;19.98;19.90;103013.81;16109983;19;130608;-62
2024/01/08 18:55:40;;;;;;;5.35;2.20;;;;;;;19.98;20.27;103022.13;16109142;19;130311;-62
2024/01/08 19:01:03;;;;;;;3.08;1.70;;;;;;;19.99;20.37;103018.31;16111375;19;129739;-62
2024/01/08 19:06:29;;;;;;;10.30;2.05;;;;;;;19.99;20.40;103015.56;16107870;19;129501;-61
2024/01/08 19:11:51;;;;;;;;;;;;;;;20.02;20.22;103030.94;16112509;19;130377;-61
2024/01/08 19:17:14;;;;;;;7.65;2.40;;;;;;;20.11;20.66;103026.09;16105379;19;129465;-62
2024/01/08 19:22:36;;;;;;;12.32;2.33;;;;;;;20.18;20.68;103028.91;16087351;19;130940;-61
2024/01/08 19:27:58;;;;;;;12.50;2.42;;;;;;;20.26;20.10;103032.38;16107072;19;129735;-61
2024/01/08 19:33:20;;;;;;;14.80;2.10;;;;;;;20.46;20.26;103031.59;16110842;19;130966;-61
2024/01/08 19:38:42;;;;;;;8.25;2.00;;;;;;;20.59;20.07;103025.25;16106097;19;129833;-61
2024/01/08 19:44:05;;;;;;;6.25;1.83;;;;;;;20.66;19.87;103028.03;16108957;19;131199;-61
2024/01/08 19:49:28;;;;;;;6.63;1.98;;;;;;;20.72;20.01;103029.97;16110021;19;131368;-61
2024/01/08 19:54:54;;;;;;;9.23;1.90;;;;;;;20.73;20.22;103027.00;16115408;19;130331;-61
2024/01/08 20:00:16;;;;;;;5.68;1.70;;;;;;;20.75;20.23;103029.56;16125110;19;130898;-61
2024/01/08 20:05:38;;;;;;;7.15;1.83;;;;;;;20.73;20.24;103037.25;16121092;19;130066;-61
2024/01/08 20:11:01;;;;;;;5.75;1.77;;;;;;;20.73;20.22;103026.13;16122416;19;131765;-61
2024/01/08 20:16:23;;;;;;;7.13;1.50;;;;;;;20.72;20.08;103018.84;16121320;19;129805;-62
2024/01/08 20:21:45;;;;;;;8.93;1.70;;;;;;;20.70;20.08;103027.41;16119919;19;129684;-61
2024/01/08 20:27:08;;;;;;;5.05;1.73;;;;;;;20.76;20.23;103028.53;16120388;19;129727;-61
2024/01/08 20:32:29;;;;;;;3.97;1.60;;;;;;;20.90;20.34;103026.63;16122213;19;131253;-61
2024/01/08 20:37:51;;;;;;;3.72;1.38;;;;;;;21.13;19.78;103019.81;16117430;19;133894;-61
2024/01/08 20:43:13;;;;;;;5.82;1.75;;;;;;;21.36;19.66;103028.59;16131961;19;131609;-62
2024/01/08 20:48:35;;;;;;;3.88;1.52;;;;;;;21.56;19.63;103029.69;16119707;19;129727;-62
2024/01/08 20:53:57;;;;;;;6.05;1.55;;;;;;;21.72;19.30;103020.91;16118247;19;129547;-61
2024/01/08 20:59:19;;;;;;;7.65;1.70;;;;;;;21.86;19.29;103018.09;16121239;19;129860;-61
2024/01/08 21:04:44;;;;;;;9.77;1.67;;;;;;;21.83;19.26;103020.22;16114631;19;130572;-62
2024/01/08 21:10:08;;;;;;;4.97;1.80;;;;;;;21.75;19.13;103023.25;16118969;19;130044;-61
2024/01/08 21:15:30;;;;;;;6.68;2.05;;;;;;;21.58;19.74;103011.72;16117941;19;131133;-60
2024/01/08 21:20:52;;;;;;;8.63;2.00;;;;;;;21.43;19.58;103024.97;16119732;19;129401;-60
2024/01/08 21:26:14;;;;;;;6.50;1.77;;;;;;;21.29;19.61;103022.19;16116320;19;129426;-61
2024/01/08 21:31:36;;;;;;;5.68;1.75;;;;;;;21.19;19.94;103025.38;16117632;19;135255;-60
2024/01/08 21:36:58;;;;;;;6.80;1.83;;;;;;;21.07;19.50;103027.06;16116224;19;130922;-60
2024/01/08 21:42:21;;;;;;;5.50;1.58;;;;;;;20.94;19.83;103027.06;16114871;19;129447;-61
2024/01/08 21:47:43;;;;;;;4.18;1.60;;;;;;;20.77;19.83;103024.69;16114401;19;129346;-61
2024/01/08 21:53:05;;;;;;;7.00;1.80;;;;;;;20.56;20.26;103042.31;16114004;19;129158;-57
2024/01/08 21:58:27;;;;;;;7.68;2.00;;;;;;;20.38;20.38;103034.56;16114643;19;130404;-58
2024/01/08 22:03:50;;;;;;;10.73;2.45;;;;;;;20.21;20.42;103043.22;16107551;19;131374;-57
2024/01/08 22:09:12;;;;;;;13.18;2.10;;;;;;;20.03;20.50;103042.94;16116492;19;131237;-58
2024/01/08 22:14:34;;;;;;;13.18;2.33;;;;;;;19.87;20.74;103041.31;16110713;19;130163;-57
2024/01/08 22:19:56;;;;;;;12.80;2.10;;;;;;;19.70;20.67;103058.28;16113198;19;130234;-58
2024/01/08 22:25:18;;;;;;;3.92;2.10;;;;;;;19.55;20.71;103055.59;16113088;19;129722;-56
2024/01/08 22:30:40;;;;;;;4.97;2.10;;;;;;;19.40;20.66;103054.81;16113966;19;130108;-55
2024/01/08 22:36:02;;;;;;;9.52;1.67;;;;;;;19.28;21.13;103063.69;16109100;19;131228;-54
2024/01/08 22:41:24;;;;;;;9.52;3.10;;;;;;;19.14;20.96;103057.09;16113443;19;129771;-55
2024/01/08 22:46:46;;;;;;;17.75;2.10;;;;;;;19.05;21.29;103061.06;16111481;19;129882;-64
2024/01/08 22:52:08;;;;;;;6.45;1.75;;;;;;;18.93;21.48;103063.50;16120657;19;129639;-70
2024/01/08 22:57:30;;;;;;;9.73;1.95;;;;;;;18.86;21.75;103062.56;16120179;19;130043;-67
2024/01/08 23:02:52;;;;;;;6.90;1.98;;;;;;;18.76;21.59;103055.41;16120513;19;129209;-61
2024/01/08 23:08:14;;;;;;;18.23;2.13;;;;;;;18.66;21.54;103049.31;16126865;19;130673;-68
2024/01/08 23:13:36;;;;;;;13.13;2.10;;;;;;;18.58;21.56;103049.44;16127506;19;129836;-63
2024/01/08 23:18:58;;;;;;;16.60;2.10;;;;;;;18.50;21.69;103050.41;16129001;19;129571;-62
2024/01/08 23:24:21;;;;;;;6.22;2.10;;;;;;;18.41;21.77;103041.34;16112577;19;129856;-62
2024/01/08 23:29:43;;;;;;;3.88;2.30;;;;;;;18.30;21.37;103044.56;16128592;19;129659;-62
2024/01/08 23:35:05;;;;;;;8.60;2.47;;;;;;;18.21;21.39;103051.28;16136270;19;130840;-62
2024/01/08 23:40:27;;;;;;;9.07;2.05;;;;;;;18.12;21.42;103051.34;16139701;19;129642;-62
2024/01/08 23:45:49;;;;;;;5.07;2.05;;;;;;;18.03;21.75;103066.34;16137820;19;130255;-63
2024/01/08 23:51:11;;;;;;;4.63;1.80;;;;;;;17.94;21.53;103068.34;16136043;19;131135;-62
2024/01/08 23:56:33;;;;;;;4.85;2.28;;;;;;;17.85;21.51;103069.47;16123988;19;129630;-63
